Gladeville, Tennessee
Current Conditions -  °F | °C
As of 3:53 PM on Sunday 25 Jan 2015 (Local Time) from KBNA Reporting Station
Overcast Overcast  
Wind Chill: 51°   Ceiling: 4100
Heat Index: 51°   Visibility: 10mi
Dew Point: 42°   Wind: 12mph
Humidity: 71%   Direction: 210°SSW
Pressure: 29.65"   Gusts: 20mph
Location:  36.11°N, 86.42°W
Report Text: KBNA 252153Z 21010G17KT 10SM BKN041 OVC055 11/06 A2965 RMK AO2 RAB10E46 SLP040 P0000 T01060056 $
Loading
Personal Weather Stations






























Interactive Weather Map New forecast layout! Learn more

10-Day Weather Forecast

Advertisements
Track Severe Weather on mobile